sensor_id;sensor_type;location;lat;lon;timestamp;temperature;humidity
68924;DHT22;55961;52.156;20.942;2022-12-18T00:01:19;-4.60;76.90
68924;DHT22;55961;52.156;20.942;2022-12-18T00:03:46;-4.50;76.80
68924;DHT22;55961;52.156;20.942;2022-12-18T00:06:12;-4.50;76.80
68924;DHT22;55961;52.156;20.942;2022-12-18T00:08:40;-4.50;76.80
68924;DHT22;55961;52.156;20.942;2022-12-18T00:11:12;-4.50;76.90
68924;DHT22;55961;52.156;20.942;2022-12-18T00:13:38;-4.50;77.00
68924;DHT22;55961;52.156;20.942;2022-12-18T00:16:12;-4.50;77.10
68924;DHT22;55961;52.156;20.942;2022-12-18T00:18:39;-4.50;77.10
68924;DHT22;55961;52.156;20.942;2022-12-18T00:21:07;-4.40;77.20
68924;DHT22;55961;52.156;20.942;2022-12-18T00:23:34;-4.40;77.20
68924;DHT22;55961;52.156;20.942;2022-12-18T00:26:02;-4.40;77.10
68924;DHT22;55961;52.156;20.942;2022-12-18T00:28:29;-4.40;77.10
68924;DHT22;55961;52.156;20.942;2022-12-18T00:31:04;-4.40;77.30
68924;DHT22;55961;52.156;20.942;2022-12-18T00:33:31;-4.30;77.20
68924;DHT22;55961;52.156;20.942;2022-12-18T00:36:04;-4.30;77.10
68924;DHT22;55961;52.156;20.942;2022-12-18T00:38:31;-4.30;77.10
68924;DHT22;55961;52.156;20.942;2022-12-18T00:40:57;-4.30;77.00
68924;DHT22;55961;52.156;20.942;2022-12-18T00:43:23;-4.30;77.10
68924;DHT22;55961;52.156;20.942;2022-12-18T00:45:48;-4.30;77.10
68924;DHT22;55961;52.156;20.942;2022-12-18T00:48:15;-4.30;77.20
68924;DHT22;55961;52.156;20.942;2022-12-18T00:50:40;-4.30;77.30
68924;DHT22;55961;52.156;20.942;2022-12-18T00:53:10;-4.20;77.30
68924;DHT22;55961;52.156;20.942;2022-12-18T00:55:38;-4.20;77.20
68924;DHT22;55961;52.156;20.942;2022-12-18T00:58:05;-4.20;77.20
68924;DHT22;55961;52.156;20.942;2022-12-18T01:00:30;-4.20;77.20
68924;DHT22;55961;52.156;20.942;2022-12-18T01:02:56;-4.20;77.20
68924;DHT22;55961;52.156;20.942;2022-12-18T01:05:22;-4.20;77.20
68924;DHT22;55961;52.156;20.942;2022-12-18T01:07:48;-4.10;77.20
68924;DHT22;55961;52.156;20.942;2022-12-18T01:10:14;-4.10;77.30
68924;DHT22;55961;52.156;20.942;2022-12-18T01:12:40;-4.10;77.30
68924;DHT22;55961;52.156;20.942;2022-12-18T01:15:13;-4.10;77.20
68924;DHT22;55961;52.156;20.942;2022-12-18T01:17:39;-4.10;77.00
68924;DHT22;55961;52.156;20.942;2022-12-18T01:20:06;-4.10;77.00
68924;DHT22;55961;52.156;20.942;2022-12-18T01:22:36;-4.10;76.60
68924;DHT22;55961;52.156;20.942;2022-12-18T01:25:03;-4.00;76.50
68924;DHT22;55961;52.156;20.942;2022-12-18T01:27:30;-4.10;76.20
68924;DHT22;55961;52.156;20.942;2022-12-18T01:29:56;-4.10;76.30
68924;DHT22;55961;52.156;20.942;2022-12-18T01:32:22;-4.10;76.40
68924;DHT22;55961;52.156;20.942;2022-12-18T01:34:48;-4.10;76.50
68924;DHT22;55961;52.156;20.942;2022-12-18T01:37:14;-4.10;76.50
68924;DHT22;55961;52.156;20.942;2022-12-18T01:39:40;-4.10;76.50
68924;DHT22;55961;52.156;20.942;2022-12-18T01:42:11;-4.10;76.70
68924;DHT22;55961;52.156;20.942;2022-12-18T01:47:55;-4.00;76.80
68924;DHT22;55961;52.156;20.942;2022-12-18T01:55:43;-4.00;76.90
68924;DHT22;55961;52.156;20.942;2022-12-18T01:58:10;-4.00;76.90
68924;DHT22;55961;52.156;20.942;2022-12-18T02:00:36;-4.00;76.80
68924;DHT22;55961;52.156;20.942;2022-12-18T02:03:02;-4.00;76.70
68924;DHT22;55961;52.156;20.942;2022-12-18T02:05:44;-4.00;76.70
68924;DHT22;55961;52.156;20.942;2022-12-18T02:08:36;-4.00;76.70
68924;DHT22;55961;52.156;20.942;2022-12-18T02:13:36;-4.00;76.70
68924;DHT22;55961;52.156;20.942;2022-12-18T02:18:50;-4.00;76.70
68924;DHT22;55961;52.156;20.942;2022-12-18T02:24:24;-4.00;76.90
68924;DHT22;55961;52.156;20.942;2022-12-18T02:26:58;-4.00;76.70
68924;DHT22;55961;52.156;20.942;2022-12-18T02:29:48;-4.00;76.70
68924;DHT22;55961;52.156;20.942;2022-12-18T02:32:20;-4.00;76.60
68924;DHT22;55961;52.156;20.942;2022-12-18T02:34:48;-4.00;76.80
68924;DHT22;55961;52.156;20.942;2022-12-18T02:37:17;-4.00;77.00
68924;DHT22;55961;52.156;20.942;2022-12-18T02:39:47;-4.00;77.10
68924;DHT22;55961;52.156;20.942;2022-12-18T02:42:13;-4.00;77.00
68924;DHT22;55961;52.156;20.942;2022-12-18T02:44:49;-3.90;76.80
68924;DHT22;55961;52.156;20.942;2022-12-18T02:47:18;-3.90;76.70
68924;DHT22;55961;52.156;20.942;2022-12-18T03:00:21;-3.90;76.80
68924;DHT22;55961;52.156;20.942;2022-12-18T03:03:02;-3.90;76.80
68924;DHT22;55961;52.156;20.942;2022-12-18T03:05:40;-3.90;76.70
68924;DHT22;55961;52.156;20.942;2022-12-18T03:08:20;-3.90;76.70
68924;DHT22;55961;52.156;20.942;2022-12-18T03:11:08;-3.90;76.60
68924;DHT22;55961;52.156;20.942;2022-12-18T03:13:54;-3.90;76.70
68924;DHT22;55961;52.156;20.942;2022-12-18T03:16:27;-3.90;76.60
68924;DHT22;55961;52.156;20.942;2022-12-18T03:19:15;-3.90;76.70
68924;DHT22;55961;52.156;20.942;2022-12-18T03:21:45;-3.90;76.80
68924;DHT22;55961;52.156;20.942;2022-12-18T03:24:13;-3.90;76.80
68924;DHT22;55961;52.156;20.942;2022-12-18T03:26:43;-3.90;76.70
68924;DHT22;55961;52.156;20.942;2022-12-18T03:29:16;-3.90;76.70
68924;DHT22;55961;52.156;20.942;2022-12-18T03:31:49;-3.90;76.80
68924;DHT22;55961;52.156;20.942;2022-12-18T03:34:21;-3.90;76.80
68924;DHT22;55961;52.156;20.942;2022-12-18T03:36:49;-3.90;76.50
68924;DHT22;55961;52.156;20.942;2022-12-18T03:39:15;-3.90;76.20
68924;DHT22;55961;52.156;20.942;2022-12-18T03:41:51;-3.90;76.10
68924;DHT22;55961;52.156;20.942;2022-12-18T03:50:15;-3.90;75.90
68924;DHT22;55961;52.156;20.942;2022-12-18T03:53:17;-3.90;76.10
68924;DHT22;55961;52.156;20.942;2022-12-18T03:55:44;-3.90;76.00
68924;DHT22;55961;52.156;20.942;2022-12-18T03:58:13;-3.90;75.80
68924;DHT22;55961;52.156;20.942;2022-12-18T04:00:41;-3.90;75.80
68924;DHT22;55961;52.156;20.942;2022-12-18T04:03:08;-3.90;75.80
68924;DHT22;55961;52.156;20.942;2022-12-18T04:05:36;-4.00;75.70
68924;DHT22;55961;52.156;20.942;2022-12-18T04:08:03;-4.00;75.80
68924;DHT22;55961;52.156;20.942;2022-12-18T04:10:29;-3.90;75.70
68924;DHT22;55961;52.156;20.942;2022-12-18T04:12:56;-4.00;75.60
68924;DHT22;55961;52.156;20.942;2022-12-18T04:15:23;-4.00;75.40
68924;DHT22;55961;52.156;20.942;2022-12-18T04:17:50;-4.00;75.30
68924;DHT22;55961;52.156;20.942;2022-12-18T04:20:16;-4.00;75.20
68924;DHT22;55961;52.156;20.942;2022-12-18T04:22:42;-4.00;75.20
68924;DHT22;55961;52.156;20.942;2022-12-18T04:25:11;-4.00;75.20
68924;DHT22;55961;52.156;20.942;2022-12-18T04:27:37;-4.00;74.70
68924;DHT22;55961;52.156;20.942;2022-12-18T04:30:03;-4.00;74.50
68924;DHT22;55961;52.156;20.942;2022-12-18T04:32:29;-4.10;74.50
68924;DHT22;55961;52.156;20.942;2022-12-18T04:34:55;-4.10;74.70
68924;DHT22;55961;52.156;20.942;2022-12-18T04:37:21;-4.10;74.70
68924;DHT22;55961;52.156;20.942;2022-12-18T04:39:47;-4.10;74.70
68924;DHT22;55961;52.156;20.942;2022-12-18T04:42:13;-4.10;74.70
68924;DHT22;55961;52.156;20.942;2022-12-18T04:44:38;-4.10;74.80
68924;DHT22;55961;52.156;20.942;2022-12-18T04:47:04;-4.20;75.00
68924;DHT22;55961;52.156;20.942;2022-12-18T04:49:30;-4.20;75.00
68924;DHT22;55961;52.156;20.942;2022-12-18T04:51:56;-4.20;75.00
68924;DHT22;55961;52.156;20.942;2022-12-18T04:54:22;-4.20;74.90
68924;DHT22;55961;52.156;20.942;2022-12-18T04:56:48;-4.20;74.80
68924;DHT22;55961;52.156;20.942;2022-12-18T04:59:14;-4.30;74.60
68924;DHT22;55961;52.156;20.942;2022-12-18T05:01:40;-4.30;74.70
68924;DHT22;55961;52.156;20.942;2022-12-18T05:04:05;-4.30;74.80
68924;DHT22;55961;52.156;20.942;2022-12-18T05:06:31;-4.40;75.10
68924;DHT22;55961;52.156;20.942;2022-12-18T05:08:57;-4.40;75.20
68924;DHT22;55961;52.156;20.942;2022-12-18T05:11:24;-4.50;75.20
68924;DHT22;55961;52.156;20.942;2022-12-18T05:13:50;-4.50;75.20
68924;DHT22;55961;52.156;20.942;2022-12-18T05:16:16;-4.50;75.40
68924;DHT22;55961;52.156;20.942;2022-12-18T05:18:41;-4.50;75.40
68924;DHT22;55961;52.156;20.942;2022-12-18T05:21:08;-4.60;75.50
68924;DHT22;55961;52.156;20.942;2022-12-18T05:23:37;-4.60;75.60
68924;DHT22;55961;52.156;20.942;2022-12-18T05:26:05;-4.60;75.70
68924;DHT22;55961;52.156;20.942;2022-12-18T05:28:33;-4.60;75.70
68924;DHT22;55961;52.156;20.942;2022-12-18T05:31:01;-4.70;75.80
68924;DHT22;55961;52.156;20.942;2022-12-18T05:33:30;-4.70;76.00
68924;DHT22;55961;52.156;20.942;2022-12-18T05:35:59;-4.70;76.10
68924;DHT22;55961;52.156;20.942;2022-12-18T05:38:26;-4.70;76.30
68924;DHT22;55961;52.156;20.942;2022-12-18T05:40:53;-4.70;76.50
68924;DHT22;55961;52.156;20.942;2022-12-18T05:43:19;-4.70;76.60
68924;DHT22;55961;52.156;20.942;2022-12-18T05:45:46;-4.70;77.00
68924;DHT22;55961;52.156;20.942;2022-12-18T05:48:12;-4.70;76.80
68924;DHT22;55961;52.156;20.942;2022-12-18T05:50:39;-4.70;76.90
68924;DHT22;55961;52.156;20.942;2022-12-18T05:53:06;-4.70;76.80
68924;DHT22;55961;52.156;20.942;2022-12-18T05:55:36;-4.70;76.90
68924;DHT22;55961;52.156;20.942;2022-12-18T05:58:03;-4.60;77.00
68924;DHT22;55961;52.156;20.942;2022-12-18T06:00:30;-4.60;76.90
68924;DHT22;55961;52.156;20.942;2022-12-18T06:02:58;-4.60;76.80
68924;DHT22;55961;52.156;20.942;2022-12-18T06:05:25;-4.60;76.90
68924;DHT22;55961;52.156;20.942;2022-12-18T06:07:51;-4.60;77.00
68924;DHT22;55961;52.156;20.942;2022-12-18T06:10:17;-4.60;77.00
68924;DHT22;55961;52.156;20.942;2022-12-18T06:12:43;-4.60;77.10
68924;DHT22;55961;52.156;20.942;2022-12-18T06:15:09;-4.60;77.10
68924;DHT22;55961;52.156;20.942;2022-12-18T06:17:35;-4.60;77.20
68924;DHT22;55961;52.156;20.942;2022-12-18T06:20:01;-4.60;77.20
68924;DHT22;55961;52.156;20.942;2022-12-18T06:22:27;-4.60;77.10
68924;DHT22;55961;52.156;20.942;2022-12-18T06:24:53;-4.60;77.10
68924;DHT22;55961;52.156;20.942;2022-12-18T06:27:19;-4.60;77.20
68924;DHT22;55961;52.156;20.942;2022-12-18T06:29:46;-4.60;77.10
68924;DHT22;55961;52.156;20.942;2022-12-18T06:32:11;-4.60;77.10
68924;DHT22;55961;52.156;20.942;2022-12-18T06:34:38;-4.60;77.20
68924;DHT22;55961;52.156;20.942;2022-12-18T06:37:04;-4.60;77.30
68924;DHT22;55961;52.156;20.942;2022-12-18T06:39:30;-4.60;77.30
68924;DHT22;55961;52.156;20.942;2022-12-18T06:41:56;-4.60;77.30
68924;DHT22;55961;52.156;20.942;2022-12-18T06:44:22;-4.60;77.40
68924;DHT22;55961;52.156;20.942;2022-12-18T06:46:47;-4.60;77.40
68924;DHT22;55961;52.156;20.942;2022-12-18T06:49:13;-4.60;77.40
68924;DHT22;55961;52.156;20.942;2022-12-18T06:51:41;-4.60;77.40
68924;DHT22;55961;52.156;20.942;2022-12-18T06:54:08;-4.60;77.60
68924;DHT22;55961;52.156;20.942;2022-12-18T06:56:34;-4.60;77.60
68924;DHT22;55961;52.156;20.942;2022-12-18T06:59:00;-4.50;77.70
68924;DHT22;55961;52.156;20.942;2022-12-18T07:01:26;-4.50;77.70
68924;DHT22;55961;52.156;20.942;2022-12-18T07:03:53;-4.50;77.80
68924;DHT22;55961;52.156;20.942;2022-12-18T07:06:22;-4.50;77.80
68924;DHT22;55961;52.156;20.942;2022-12-18T07:08:49;-4.50;77.70
68924;DHT22;55961;52.156;20.942;2022-12-18T07:11:16;-4.50;77.80
68924;DHT22;55961;52.156;20.942;2022-12-18T07:13:42;-4.50;77.80
68924;DHT22;55961;52.156;20.942;2022-12-18T07:16:11;-4.50;77.80
68924;DHT22;55961;52.156;20.942;2022-12-18T07:18:37;-4.40;78.10
68924;DHT22;55961;52.156;20.942;2022-12-18T07:21:10;-4.40;78.00
68924;DHT22;55961;52.156;20.942;2022-12-18T07:23:37;-4.40;77.90
68924;DHT22;55961;52.156;20.942;2022-12-18T07:26:11;-4.40;78.00
68924;DHT22;55961;52.156;20.942;2022-12-18T07:28:39;-4.30;77.90
68924;DHT22;55961;52.156;20.942;2022-12-18T07:31:14;-4.30;77.80
68924;DHT22;55961;52.156;20.942;2022-12-18T07:33:40;-4.30;77.80
68924;DHT22;55961;52.156;20.942;2022-12-18T07:36:08;-4.30;77.50
68924;DHT22;55961;52.156;20.942;2022-12-18T07:38:35;-4.30;77.50
68924;DHT22;55961;52.156;20.942;2022-12-18T07:41:03;-4.30;77.40
68924;DHT22;55961;52.156;20.942;2022-12-18T07:43:29;-4.30;77.30
68924;DHT22;55961;52.156;20.942;2022-12-18T07:45:55;-4.30;77.30
68924;DHT22;55961;52.156;20.942;2022-12-18T07:48:21;-4.20;77.50
68924;DHT22;55961;52.156;20.942;2022-12-18T07:50:47;-4.20;77.40
68924;DHT22;55961;52.156;20.942;2022-12-18T07:53:13;-4.20;77.50
68924;DHT22;55961;52.156;20.942;2022-12-18T07:55:43;-4.20;77.50
68924;DHT22;55961;52.156;20.942;2022-12-18T07:58:09;-4.20;77.40
68924;DHT22;55961;52.156;20.942;2022-12-18T08:00:35;-4.10;77.60
68924;DHT22;55961;52.156;20.942;2022-12-18T08:03:01;-4.10;77.60
68924;DHT22;55961;52.156;20.942;2022-12-18T08:05:27;-4.10;77.60
68924;DHT22;55961;52.156;20.942;2022-12-18T08:07:54;-4.10;77.50
68924;DHT22;55961;52.156;20.942;2022-12-18T08:10:20;-4.00;77.20
68924;DHT22;55961;52.156;20.942;2022-12-18T08:12:50;-4.00;77.10
68924;DHT22;55961;52.156;20.942;2022-12-18T08:15:16;-4.00;76.90
68924;DHT22;55961;52.156;20.942;2022-12-18T08:17:42;-4.00;77.00
68924;DHT22;55961;52.156;20.942;2022-12-18T08:20:08;-4.00;77.10
68924;DHT22;55961;52.156;20.942;2022-12-18T08:22:38;-3.90;77.10
68924;DHT22;55961;52.156;20.942;2022-12-18T08:25:04;-3.90;76.90
68924;DHT22;55961;52.156;20.942;2022-12-18T08:27:32;-3.90;76.80
68924;DHT22;55961;52.156;20.942;2022-12-18T08:29:57;-3.80;77.00
68924;DHT22;55961;52.156;20.942;2022-12-18T08:32:25;-3.80;76.50
68924;DHT22;55961;52.156;20.942;2022-12-18T08:34:50;-3.80;76.10
68924;DHT22;55961;52.156;20.942;2022-12-18T08:37:16;-3.80;75.90
68924;DHT22;55961;52.156;20.942;2022-12-18T08:39:42;-3.80;76.00
68924;DHT22;55961;52.156;20.942;2022-12-18T08:42:09;-3.80;75.70
68924;DHT22;55961;52.156;20.942;2022-12-18T08:44:53;-3.80;75.70
68924;DHT22;55961;52.156;20.942;2022-12-18T08:47:19;-3.80;75.70
68924;DHT22;55961;52.156;20.942;2022-12-18T08:49:45;-3.80;75.70
68924;DHT22;55961;52.156;20.942;2022-12-18T08:52:14;-3.80;75.50
68924;DHT22;55961;52.156;20.942;2022-12-18T08:54:40;-3.80;75.30
68924;DHT22;55961;52.156;20.942;2022-12-18T08:57:06;-3.80;75.50
68924;DHT22;55961;52.156;20.942;2022-12-18T08:59:32;-3.70;75.60
68924;DHT22;55961;52.156;20.942;2022-12-18T09:01:58;-3.70;75.40
68924;DHT22;55961;52.156;20.942;2022-12-18T09:04:24;-3.70;75.30
68924;DHT22;55961;52.156;20.942;2022-12-18T09:06:50;-3.70;75.20
68924;DHT22;55961;52.156;20.942;2022-12-18T09:09:16;-3.80;74.70
68924;DHT22;55961;52.156;20.942;2022-12-18T09:11:45;-3.80;74.80
68924;DHT22;55961;52.156;20.942;2022-12-18T09:14:10;-3.80;74.90
68924;DHT22;55961;52.156;20.942;2022-12-18T09:16:37;-3.80;75.20
68924;DHT22;55961;52.156;20.942;2022-12-18T09:19:04;-3.70;75.30
68924;DHT22;55961;52.156;20.942;2022-12-18T09:21:37;-3.70;75.00
68924;DHT22;55961;52.156;20.942;2022-12-18T09:24:04;-3.80;74.60
68924;DHT22;55961;52.156;20.942;2022-12-18T09:26:31;-3.80;74.80
68924;DHT22;55961;52.156;20.942;2022-12-18T09:28:57;-3.80;74.70
68924;DHT22;55961;52.156;20.942;2022-12-18T09:31:24;-3.80;74.90
68924;DHT22;55961;52.156;20.942;2022-12-18T09:33:50;-3.80;75.00
68924;DHT22;55961;52.156;20.942;2022-12-18T09:36:17;-3.90;75.20
68924;DHT22;55961;52.156;20.942;2022-12-18T09:38:44;-3.80;75.60
68924;DHT22;55961;52.156;20.942;2022-12-18T09:44:00;-3.80;75.50
68924;DHT22;55961;52.156;20.942;2022-12-18T09:46:32;-3.70;75.40
68924;DHT22;55961;52.156;20.942;2022-12-18T09:49:02;-3.70;75.50
68924;DHT22;55961;52.156;20.942;2022-12-18T09:51:36;-3.70;74.90
68924;DHT22;55961;52.156;20.942;2022-12-18T09:54:29;-3.70;74.70
68924;DHT22;55961;52.156;20.942;2022-12-18T09:56:52;-3.70;75.00
68924;DHT22;55961;52.156;20.942;2022-12-18T09:59:26;-3.70;74.70
68924;DHT22;55961;52.156;20.942;2022-12-18T10:01:55;-3.70;74.60
68924;DHT22;55961;52.156;20.942;2022-12-18T10:04:21;-3.70;74.60
68924;DHT22;55961;52.156;20.942;2022-12-18T10:07:04;-3.70;74.50
68924;DHT22;55961;52.156;20.942;2022-12-18T10:10:21;-3.60;74.80
68924;DHT22;55961;52.156;20.942;2022-12-18T10:12:38;-3.60;74.40
68924;DHT22;55961;52.156;20.942;2022-12-18T10:17:50;-3.70;74.80
68924;DHT22;55961;52.156;20.942;2022-12-18T10:23:12;-3.70;74.80
68924;DHT22;55961;52.156;20.942;2022-12-18T10:25:54;-3.70;74.60
68924;DHT22;55961;52.156;20.942;2022-12-18T10:28:21;-3.60;74.20
68924;DHT22;55961;52.156;20.942;2022-12-18T10:30:48;-3.60;74.50
68924;DHT22;55961;52.156;20.942;2022-12-18T10:33:27;-3.60;74.70
68924;DHT22;55961;52.156;20.942;2022-12-18T10:35:54;-3.60;74.60
68924;DHT22;55961;52.156;20.942;2022-12-18T10:38:25;-3.60;75.00
68924;DHT22;55961;52.156;20.942;2022-12-18T10:43:31;-3.50;75.10
68924;DHT22;55961;52.156;20.942;2022-12-18T10:51:06;-3.40;74.70
68924;DHT22;55961;52.156;20.942;2022-12-18T10:53:36;-3.40;74.30
68924;DHT22;55961;52.156;20.942;2022-12-18T10:56:04;-3.30;74.50
68924;DHT22;55961;52.156;20.942;2022-12-18T10:58:32;-3.30;74.40
68924;DHT22;55961;52.156;20.942;2022-12-18T11:03:38;-3.20;74.10
68924;DHT22;55961;52.156;20.942;2022-12-18T11:06:12;-3.20;74.10
68924;DHT22;55961;52.156;20.942;2022-12-18T11:08:40;-3.20;73.80
68924;DHT22;55961;52.156;20.942;2022-12-18T11:11:22;-3.10;74.00
68924;DHT22;55961;52.156;20.942;2022-12-18T11:14:16;-3.10;73.10
68924;DHT22;55961;52.156;20.942;2022-12-18T11:16:46;-3.10;72.80
68924;DHT22;55961;52.156;20.942;2022-12-18T11:19:25;-3.10;72.50
68924;DHT22;55961;52.156;20.942;2022-12-18T11:21:51;-3.00;72.80
68924;DHT22;55961;52.156;20.942;2022-12-18T11:26:59;-3.00;72.90
68924;DHT22;55961;52.156;20.942;2022-12-18T11:29:38;-3.00;72.70
68924;DHT22;55961;52.156;20.942;2022-12-18T11:32:24;-2.90;72.40
68924;DHT22;55961;52.156;20.942;2022-12-18T11:38:02;-2.90;72.40
68924;DHT22;55961;52.156;20.942;2022-12-18T11:40:36;-2.90;72.90
68924;DHT22;55961;52.156;20.942;2022-12-18T11:43:42;-2.80;72.80
68924;DHT22;55961;52.156;20.942;2022-12-18T11:46:17;-2.70;72.60
68924;DHT22;55961;52.156;20.942;2022-12-18T11:48:57;-2.70;72.60
68924;DHT22;55961;52.156;20.942;2022-12-18T11:51:33;-2.70;72.30
68924;DHT22;55961;52.156;20.942;2022-12-18T11:54:04;-2.60;71.80
68924;DHT22;55961;52.156;20.942;2022-12-18T11:56:37;-2.60;71.90
68924;DHT22;55961;52.156;20.942;2022-12-18T12:01:48;-2.50;72.10
68924;DHT22;55961;52.156;20.942;2022-12-18T12:15:28;-2.30;70.70
68924;DHT22;55961;52.156;20.942;2022-12-18T12:20:47;-2.20;70.00
68924;DHT22;55961;52.156;20.942;2022-12-18T12:26:03;-2.20;69.80
68924;DHT22;55961;52.156;20.942;2022-12-18T12:28:56;-2.20;69.80
68924;DHT22;55961;52.156;20.942;2022-12-18T12:34:27;-2.30;69.80
68924;DHT22;55961;52.156;20.942;2022-12-18T12:39:56;-2.40;69.90
68924;DHT22;55961;52.156;20.942;2022-12-18T12:42:33;-2.40;69.90
68924;DHT22;55961;52.156;20.942;2022-12-18T12:45:33;-2.40;70.10
68924;DHT22;55961;52.156;20.942;2022-12-18T12:48:01;-2.50;70.20
68924;DHT22;55961;52.156;20.942;2022-12-18T12:50:32;-2.50;70.50
68924;DHT22;55961;52.156;20.942;2022-12-18T12:53:01;-2.50;70.50
68924;DHT22;55961;52.156;20.942;2022-12-18T12:55:31;-2.50;70.60
68924;DHT22;55961;52.156;20.942;2022-12-18T13:08:27;-2.70;70.60
68924;DHT22;55961;52.156;20.942;2022-12-18T13:10:54;-2.70;71.20
68924;DHT22;55961;52.156;20.942;2022-12-18T13:13:55;-2.70;71.50
68924;DHT22;55961;52.156;20.942;2022-12-18T13:16:26;-2.80;71.40
68924;DHT22;55961;52.156;20.942;2022-12-18T13:18:54;-2.80;71.50
68924;DHT22;55961;52.156;20.942;2022-12-18T13:21:33;-2.90;71.90
68924;DHT22;55961;52.156;20.942;2022-12-18T13:24:25;-2.90;72.40
68924;DHT22;55961;52.156;20.942;2022-12-18T13:26:51;-2.90;72.20
68924;DHT22;55961;52.156;20.942;2022-12-18T13:32:25;-2.90;72.10
68924;DHT22;55961;52.156;20.942;2022-12-18T13:37:46;-2.90;72.20
68924;DHT22;55961;52.156;20.942;2022-12-18T13:46:06;-3.00;72.60
68924;DHT22;55961;52.156;20.942;2022-12-18T13:48:53;-3.10;72.80
68924;DHT22;55961;52.156;20.942;2022-12-18T13:51:20;-3.00;73.20
68924;DHT22;55961;52.156;20.942;2022-12-18T13:54:11;-3.00;73.20
68924;DHT22;55961;52.156;20.942;2022-12-18T13:56:45;-3.10;73.10
68924;DHT22;55961;52.156;20.942;2022-12-18T13:59:13;-3.10;73.20
68924;DHT22;55961;52.156;20.942;2022-12-18T14:01:56;-3.10;73.20
68924;DHT22;55961;52.156;20.942;2022-12-18T14:04:29;-3.10;73.50
68924;DHT22;55961;52.156;20.942;2022-12-18T14:07:00;-3.20;73.60
68924;DHT22;55961;52.156;20.942;2022-12-18T14:09:30;-3.20;73.50
68924;DHT22;55961;52.156;20.942;2022-12-18T14:11:57;-3.20;73.50
68924;DHT22;55961;52.156;20.942;2022-12-18T14:14:44;-3.20;73.40
68924;DHT22;55961;52.156;20.942;2022-12-18T14:17:11;-3.20;73.50
68924;DHT22;55961;52.156;20.942;2022-12-18T14:19:42;-3.20;73.80
68924;DHT22;55961;52.156;20.942;2022-12-18T14:22:16;-3.20;73.70
68924;DHT22;55961;52.156;20.942;2022-12-18T14:24:43;-3.20;73.70
68924;DHT22;55961;52.156;20.942;2022-12-18T14:27:20;-3.30;73.70
68924;DHT22;55961;52.156;20.942;2022-12-18T14:29:47;-3.30;73.90
68924;DHT22;55961;52.156;20.942;2022-12-18T14:32:18;-3.30;73.70
68924;DHT22;55961;52.156;20.942;2022-12-18T14:34:49;-3.40;73.80
68924;DHT22;55961;52.156;20.942;2022-12-18T14:37:22;-3.40;73.80
68924;DHT22;55961;52.156;20.942;2022-12-18T14:40:12;-3.40;74.00
68924;DHT22;55961;52.156;20.942;2022-12-18T14:42:38;-3.40;73.90
68924;DHT22;55961;52.156;20.942;2022-12-18T14:45:39;-3.40;73.60
68924;DHT22;55961;52.156;20.942;2022-12-18T14:51:14;-3.40;73.60
68924;DHT22;55961;52.156;20.942;2022-12-18T14:54:03;-3.50;73.50
68924;DHT22;55961;52.156;20.942;2022-12-18T14:56:35;-3.50;73.60
68924;DHT22;55961;52.156;20.942;2022-12-18T14:59:03;-3.50;73.70
68924;DHT22;55961;52.156;20.942;2022-12-18T15:04:01;-3.50;73.60
68924;DHT22;55961;52.156;20.942;2022-12-18T15:06:38;-3.50;73.80
68924;DHT22;55961;52.156;20.942;2022-12-18T15:09:22;-3.50;74.00
68924;DHT22;55961;52.156;20.942;2022-12-18T15:11:49;-3.50;74.10
68924;DHT22;55961;52.156;20.942;2022-12-18T15:14:30;-3.60;74.20
68924;DHT22;55961;52.156;20.942;2022-12-18T15:16:59;-3.60;74.50
68924;DHT22;55961;52.156;20.942;2022-12-18T15:19:34;-3.60;74.70
68924;DHT22;55961;52.156;20.942;2022-12-18T15:22:01;-3.60;74.80
68924;DHT22;55961;52.156;20.942;2022-12-18T15:24:30;-3.60;74.70
68924;DHT22;55961;52.156;20.942;2022-12-18T15:26:58;-3.60;74.60
68924;DHT22;55961;52.156;20.942;2022-12-18T15:29:24;-3.60;74.60
68924;DHT22;55961;52.156;20.942;2022-12-18T15:32:19;-3.70;74.60
68924;DHT22;55961;52.156;20.942;2022-12-18T15:34:45;-3.70;74.00
68924;DHT22;55961;52.156;20.942;2022-12-18T15:37:11;-3.70;74.30
68924;DHT22;55961;52.156;20.942;2022-12-18T15:39:37;-3.70;74.50
68924;DHT22;55961;52.156;20.942;2022-12-18T15:42:07;-3.80;76.00
68924;DHT22;55961;52.156;20.942;2022-12-18T15:44:51;-3.70;75.40
68924;DHT22;55961;52.156;20.942;2022-12-18T15:47:17;-3.70;75.00
68924;DHT22;55961;52.156;20.942;2022-12-18T15:49:43;-3.70;74.80
68924;DHT22;55961;52.156;20.942;2022-12-18T15:52:12;-3.80;74.80
68924;DHT22;55961;52.156;20.942;2022-12-18T15:54:39;-3.70;74.50
68924;DHT22;55961;52.156;20.942;2022-12-18T15:57:23;-3.80;74.30
68924;DHT22;55961;52.156;20.942;2022-12-18T15:59:50;-3.80;74.30
68924;DHT22;55961;52.156;20.942;2022-12-18T16:02:20;-3.80;74.30
68924;DHT22;55961;52.156;20.942;2022-12-18T16:04:49;-3.80;74.30
68924;DHT22;55961;52.156;20.942;2022-12-18T16:07:15;-3.80;74.50
68924;DHT22;55961;52.156;20.942;2022-12-18T16:09:41;-3.90;74.50
68924;DHT22;55961;52.156;20.942;2022-12-18T16:12:21;-3.90;74.50
68924;DHT22;55961;52.156;20.942;2022-12-18T16:15:07;-3.90;74.80
68924;DHT22;55961;52.156;20.942;2022-12-18T16:17:35;-3.90;74.80
68924;DHT22;55961;52.156;20.942;2022-12-18T16:20:01;-3.90;74.60
68924;DHT22;55961;52.156;20.942;2022-12-18T16:22:29;-4.00;74.70
68924;DHT22;55961;52.156;20.942;2022-12-18T16:24:56;-4.00;74.70
68924;DHT22;55961;52.156;20.942;2022-12-18T16:27:23;-4.00;74.70
68924;DHT22;55961;52.156;20.942;2022-12-18T16:29:49;-4.00;75.00
68924;DHT22;55961;52.156;20.942;2022-12-18T16:32:17;-4.00;75.20
68924;DHT22;55961;52.156;20.942;2022-12-18T16:34:44;-4.10;75.40
68924;DHT22;55961;52.156;20.942;2022-12-18T16:37:12;-4.10;75.20
68924;DHT22;55961;52.156;20.942;2022-12-18T16:39:39;-4.10;75.20
68924;DHT22;55961;52.156;20.942;2022-12-18T16:42:11;-4.10;75.20
68924;DHT22;55961;52.156;20.942;2022-12-18T16:44:42;-4.10;75.20
68924;DHT22;55961;52.156;20.942;2022-12-18T16:47:09;-4.20;75.20
68924;DHT22;55961;52.156;20.942;2022-12-18T16:49:35;-4.20;75.50
68924;DHT22;55961;52.156;20.942;2022-12-18T16:52:02;-4.20;75.60
68924;DHT22;55961;52.156;20.942;2022-12-18T16:54:28;-4.20;75.60
68924;DHT22;55961;52.156;20.942;2022-12-18T16:56:55;-4.30;75.50
68924;DHT22;55961;52.156;20.942;2022-12-18T16:59:21;-4.30;75.60
68924;DHT22;55961;52.156;20.942;2022-12-18T17:01:47;-4.30;75.80
68924;DHT22;55961;52.156;20.942;2022-12-18T17:04:14;-4.40;76.10
68924;DHT22;55961;52.156;20.942;2022-12-18T17:06:44;-4.40;76.20
68924;DHT22;55961;52.156;20.942;2022-12-18T17:09:17;-4.30;76.30
68924;DHT22;55961;52.156;20.942;2022-12-18T17:11:50;-4.40;76.00
68924;DHT22;55961;52.156;20.942;2022-12-18T17:14:19;-4.40;75.80
68924;DHT22;55961;52.156;20.942;2022-12-18T17:16:45;-4.40;75.90
68924;DHT22;55961;52.156;20.942;2022-12-18T17:19:12;-4.50;75.90
68924;DHT22;55961;52.156;20.942;2022-12-18T17:21:38;-4.50;76.00
68924;DHT22;55961;52.156;20.942;2022-12-18T17:24:04;-4.50;76.10